Time;durP1;ratioP1;P1;durP2;ratioP2;P2;SDS_P1;SDS_P2;PMS_P1;PMS_P2;Temp;Humidity;BMP_temperature;BMP_pressure;BME280_temperature;BME280_humidity;BME280_pressure;Samples;Min_cycle;Max_cycle;Signal;HPM_P1;HPM_P2
2022/04/18 00:00:07;;;;;;;12.90;9.32;;;11.30;66.00;;;;;;5093255;28;20101;-41
2022/04/18 00:02:33;;;;;;;13.63;9.90;;;11.30;66.10;;;;;;5103593;28;20405;-41
2022/04/18 00:04:59;;;;;;;16.10;10.65;;;11.20;66.20;;;;;;5095917;28;20020;-42
2022/04/18 00:07:24;;;;;;;13.98;10.60;;;11.20;66.30;;;;;;5101212;28;20027;-40
2022/04/18 00:09:50;;;;;;;13.70;10.45;;;11.20;66.50;;;;;;5098172;28;20531;-42
2022/04/18 00:12:16;;;;;;;13.50;9.95;;;11.10;66.60;;;;;;5098363;28;20046;-43
2022/04/18 00:14:41;;;;;;;17.83;11.27;;;11.10;66.70;;;;;;5102534;28;20027;-42
2022/04/18 00:17:09;;;;;;;14.07;10.50;;;11.10;66.90;;;;;;5105137;28;20043;-41
2022/04/18 00:19:36;;;;;;;15.07;10.73;;;11.00;67.00;;;;;;5096607;28;20024;-43
2022/04/18 00:22:02;;;;;;;14.93;10.82;;;11.00;67.20;;;;;;5099542;28;20059;-41
2022/04/18 00:24:28;;;;;;;14.75;11.32;;;11.00;67.40;;;;;;5088169;28;20692;-40
2022/04/18 00:26:53;;;;;;;15.15;10.77;;;10.90;67.50;;;;;;5099755;28;20027;-41
2022/04/18 00:29:19;;;;;;;16.35;11.05;;;10.90;67.70;;;;;;5088481;28;20021;-42
2022/04/18 00:31:44;;;;;;;17.52;12.13;;;10.90;67.90;;;;;;5100127;28;20024;-37
2022/04/18 00:34:10;;;;;;;14.13;11.00;;;10.80;67.90;;;;;;5088653;28;20519;-42
2022/04/18 00:36:36;;;;;;;16.90;11.60;;;10.80;68.10;;;;;;5100366;28;20492;-42
2022/04/18 00:39:01;;;;;;;15.02;11.15;;;10.80;68.20;;;;;;5087802;28;20483;-41
2022/04/18 00:41:27;;;;;;;16.40;12.07;;;10.80;68.50;;;;;;5099049;28;20063;-43
2022/04/18 00:43:52;;;;;;;14.30;11.35;;;10.70;68.60;;;;;;5089838;28;20088;-41
2022/04/18 00:46:20;;;;;;;15.55;11.00;;;10.70;68.70;;;;;;5096201;28;20118;-42
2022/04/18 00:48:47;;;;;;;14.63;11.15;;;10.70;68.70;;;;;;5091537;28;20064;-42
2022/04/18 00:51:15;;;;;;;13.32;10.93;;;10.70;68.80;;;;;;5094372;28;20542;-41
2022/04/18 00:53:44;;;;;;;14.77;11.40;;;10.70;69.00;;;;;;5092712;28;20563;-42
2022/04/18 00:56:18;;;;;;;14.90;11.23;;;10.60;69.00;;;;;;5092483;28;20039;-42
2022/04/18 00:58:46;;;;;;;15.25;11.75;;;10.60;69.20;;;;;;5094044;28;20044;-42
2022/04/18 01:01:12;;;;;;;14.30;11.10;;;10.60;69.30;;;;;;5090696;28;20020;-42
2022/04/18 01:03:38;;;;;;;16.13;10.60;;;10.60;69.40;;;;;;5096963;28;20468;-42
2022/04/18 01:06:04;;;;;;;13.43;10.23;;;10.50;69.40;;;;;;5088588;28;20012;-43
2022/04/18 01:08:32;;;;;;;13.73;10.80;;;10.50;69.60;;;;;;5098655;28;20016;-41
2022/04/18 01:10:58;;;;;;;15.38;10.73;;;10.50;69.80;;;;;;5089198;28;20028;-42
2022/04/18 01:13:23;;;;;;;15.20;11.02;;;10.50;69.90;;;;;;5097316;28;20022;-42
2022/04/18 01:15:53;;;;;;;14.40;10.95;;;10.40;69.90;;;;;;5099171;28;20036;-45
2022/04/18 01:18:18;;;;;;;15.82;10.48;;;10.50;70.00;;;;;;5095373;28;20031;-41
2022/04/18 01:20:44;;;;;;;13.43;10.05;;;10.40;69.90;;;;;;5107072;28;20031;-41
2022/04/18 01:23:10;;;;;;;12.90;9.88;;;10.40;70.00;;;;;;5094752;28;20051;-42
2022/04/18 01:31:04;;;;;;;12.68;8.90;;;10.30;70.10;;;;;;5107678;28;20062;-41
2022/04/18 01:33:30;;;;;;;13.77;10.05;;;10.30;70.10;;;;;;5094234;28;20060;-41
2022/04/18 01:35:56;;;;;;;13.43;9.75;;;10.30;70.30;;;;;;5107030;28;20035;-42
2022/04/18 01:38:22;;;;;;;12.63;9.18;;;10.30;70.40;;;;;;5095380;28;20036;-42
2022/04/18 01:40:47;;;;;;;10.43;8.00;;;10.30;70.40;;;;;;5105840;28;20038;-41
2022/04/18 01:43:13;;;;;;;13.90;10.35;;;10.20;70.40;;;;;;5097571;28;20467;-39
2022/04/18 01:45:38;;;;;;;11.45;9.20;;;10.20;70.60;;;;;;5103382;28;20027;-41
2022/04/18 01:48:04;;;;;;;14.35;9.93;;;10.20;70.60;;;;;;5100399;28;20023;-41
2022/04/18 01:50:30;;;;;;;13.25;9.00;;;10.20;70.60;;;;;;5099762;28;20027;-40
2022/04/18 01:52:55;;;;;;;12.10;9.30;;;10.10;70.70;;;;;;5104155;28;20034;-42
2022/04/18 01:55:21;;;;;;;11.43;8.10;;;10.10;70.60;;;;;;5096988;28;20127;-42
2022/04/18 01:57:47;;;;;;;12.25;8.90;;;10.10;70.70;;;;;;5105118;28;20387;-42
2022/04/18 02:00:12;;;;;;;12.88;8.45;;;10.10;70.70;;;;;;5095864;28;20537;-41
2022/04/18 02:02:38;;;;;;;12.63;8.48;;;10.10;70.60;;;;;;5104567;28;20368;-41
2022/04/18 02:05:06;;;;;;;12.02;9.38;;;10.10;70.70;;;;;;5095641;28;20015;-42
2022/04/18 02:07:32;;;;;;;10.95;8.18;;;10.10;70.70;;;;;;5106673;28;20042;-39
2022/04/18 02:09:57;;;;;;;10.93;9.15;;;10.10;70.70;;;;;;5093819;28;20020;-42
2022/04/18 02:12:23;;;;;;;12.10;8.98;;;10.00;71.50;;;;;;5107204;28;20028;-43
2022/04/18 02:14:48;;;;;;;10.48;7.88;;;10.00;70.90;;;;;;5093339;28;20455;-42
2022/04/18 02:17:14;;;;;;;13.27;9.30;;;10.00;70.90;;;;;;5086179;28;20035;-42
2022/04/18 02:19:39;;;;;;;11.02;8.82;;;10.00;71.00;;;;;;5096597;28;20267;-41
2022/04/18 02:22:05;;;;;;;11.60;9.05;;;9.90;71.10;;;;;;5089038;28;20031;-41
2022/04/18 02:24:31;;;;;;;12.95;9.30;;;9.90;71.10;;;;;;5093534;28;20019;-42
2022/04/18 02:26:57;;;;;;;9.18;7.60;;;9.90;71.20;;;;;;5090469;28;20468;-42
2022/04/18 02:29:23;;;;;;;11.27;7.43;;;9.80;71.20;;;;;;5091730;28;20028;-40
2022/04/18 02:34:33;;;;;;;9.88;7.38;;;9.80;72.00;;;;;;5091035;28;20038;-41
2022/04/18 02:36:58;;;;;;;10.93;7.70;;;9.80;71.40;;;;;;5093565;28;20036;-42
2022/04/18 02:39:24;;;;;;;11.50;8.00;;;9.70;71.50;;;;;;5087440;28;20028;-41
2022/04/18 02:41:49;;;;;;;12.48;8.13;;;9.70;71.60;;;;;;5096353;28;20495;-41
2022/04/18 02:44:15;;;;;;;9.93;8.07;;;9.70;71.70;;;;;;5086390;28;20016;-39
2022/04/18 02:46:41;;;;;;;10.43;8.65;;;9.60;71.70;;;;;;5096896;28;20364;-40
2022/04/18 02:49:06;;;;;;;12.50;8.35;;;9.60;71.80;;;;;;5086951;28;20766;-42
2022/04/18 02:51:32;;;;;;;11.35;8.43;;;9.60;71.90;;;;;;5096068;28;20563;-42
2022/04/18 02:53:59;;;;;;;11.23;8.30;;;9.50;72.00;;;;;;5086367;28;20468;-43
2022/04/18 02:56:24;;;;;;;10.57;8.52;;;9.50;72.10;;;;;;5097802;28;20126;-43
2022/04/18 02:58:50;;;;;;;11.30;8.45;;;9.50;72.20;;;;;;5085667;28;20147;-42
2022/04/18 03:01:15;;;;;;;10.52;8.20;;;9.40;72.30;;;;;;5098193;28;20034;-43
2022/04/18 03:03:41;;;;;;;11.07;8.40;;;9.40;72.40;;;;;;5085302;28;20024;-40
2022/04/18 03:06:06;;;;;;;11.85;8.65;;;9.40;72.50;;;;;;5095154;28;20016;-42
2022/04/18 03:08:32;;;;;;;10.95;8.30;;;9.40;72.70;;;;;;5088006;28;20028;-41
2022/04/18 03:11:05;;;;;;;11.55;9.32;;;9.30;72.70;;;;;;5092928;28;20064;-42
2022/04/18 03:13:32;;;;;;;;;;;9.30;72.80;;;;;;5089925;28;20032;-41
2022/04/18 03:15:58;;;;;;;11.07;8.43;;;9.30;72.80;;;;;;5091418;28;19912;-41
2022/04/18 03:18:24;;;;;;;10.57;8.57;;;9.20;72.80;;;;;;5092019;28;20051;-41
2022/04/18 03:20:50;;;;;;;10.85;8.73;;;9.20;72.80;;;;;;5088021;28;20427;-41
2022/04/18 03:23:15;;;;;;;10.02;8.18;;;9.20;72.90;;;;;;5095346;28;20028;-41
2022/04/18 03:25:40;;;;;;;11.30;8.35;;;9.20;73.00;;;;;;5087191;28;20553;-42
2022/04/18 03:28:06;;;;;;;12.35;9.35;;;9.10;73.10;;;;;;5096568;28;20032;-41
2022/04/18 03:30:31;;;;;;;11.48;9.00;;;9.10;73.20;;;;;;5086167;28;20384;-41
2022/04/18 03:32:57;;;;;;;14.88;9.13;;;9.10;73.20;;;;;;5096979;28;20497;-41
2022/04/18 03:35:22;;;;;;;11.90;8.73;;;9.10;73.20;;;;;;5085120;28;20021;-43
2022/04/18 03:40:32;;;;;;;10.40;8.00;;;9.00;73.40;;;;;;5084427;28;20043;-41
2022/04/18 03:42:57;;;;;;;11.35;8.80;;;9.00;73.40;;;;;;5098247;28;20043;-40
2022/04/18 03:45:23;;;;;;;12.30;9.07;;;9.00;73.60;;;;;;5085353;28;20052;-43
2022/04/18 03:47:48;;;;;;;14.40;10.43;;;8.90;73.60;;;;;;5097411;28;20435;-40
2022/04/18 03:50:14;;;;;;;12.50;9.93;;;8.90;73.70;;;;;;5085094;28;20032;-42
2022/04/18 03:52:40;;;;;;;13.35;9.70;;;8.90;73.80;;;;;;5094254;28;20052;-40
2022/04/18 03:55:06;;;;;;;13.02;10.10;;;8.90;73.90;;;;;;5087775;28;20059;-41
2022/04/18 03:57:31;;;;;;;13.55;9.25;;;8.90;73.90;;;;;;5096353;28;20036;-42
2022/04/18 03:59:57;;;;;;;12.43;9.13;;;8.90;74.00;;;;;;5094367;28;20050;-40
2022/04/18 04:02:22;;;;;;;13.88;9.98;;;8.80;74.00;;;;;;5092218;28;20038;-40
2022/04/18 04:04:48;;;;;;;13.45;9.70;;;8.80;74.20;;;;;;5096841;28;20024;-40
2022/04/18 04:07:13;;;;;;;15.15;10.18;;;8.80;74.30;;;;;;5090370;28;20027;-42
2022/04/18 04:09:39;;;;;;;14.27;8.95;;;8.70;74.20;;;;;;5099163;28;20036;-43
2022/04/18 04:12:05;;;;;;;12.43;9.13;;;8.70;74.20;;;;;;5090299;28;20699;-42
2022/04/18 04:14:31;;;;;;;12.80;9.07;;;8.70;74.20;;;;;;5099691;28;20486;-41
2022/04/18 04:16:57;;;;;;;11.05;8.82;;;8.70;74.20;;;;;;5106634;28;20559;-41
2022/04/18 04:19:23;;;;;;;12.27;9.10;;;8.70;74.20;;;;;;5096359;28;20118;-40
2022/04/18 04:21:48;;;;;;;11.85;8.68;;;8.70;74.30;;;;;;5109481;28;20031;-42
2022/04/18 04:24:14;;;;;;;10.68;8.88;;;8.60;74.40;;;;;;5095391;28;20024;-41
2022/04/18 04:26:40;;;;;;;11.63;9.27;;;8.70;74.40;;;;;;5108961;28;20027;-39
2022/04/18 04:29:05;;;;;;;11.75;8.77;;;8.60;74.40;;;;;;5096551;28;20454;-42
2022/04/18 04:31:30;;;;;;;14.07;9.25;;;8.60;74.40;;;;;;5106939;28;20027;-38
2022/04/18 04:33:56;;;;;;;10.38;8.27;;;8.60;74.40;;;;;;5100324;28;20101;-42
2022/04/18 04:36:21;;;;;;;12.15;9.10;;;8.60;74.50;;;;;;5104978;28;20031;-43
2022/04/18 04:38:47;;;;;;;13.15;9.20;;;8.60;74.50;;;;;;5101301;28;20035;-40
2022/04/18 04:41:14;;;;;;;11.23;8.05;;;8.60;74.70;;;;;;5101543;28;20028;-41
2022/04/18 04:43:40;;;;;;;12.63;9.05;;;8.50;74.60;;;;;;5104240;28;20043;-40
2022/04/18 04:46:05;;;;;;;10.82;9.05;;;8.50;74.70;;;;;;5099006;28;20171;-42
2022/04/18 04:48:31;;;;;;;11.65;8.40;;;8.50;74.80;;;;;;5106942;28;20665;-41
2022/04/18 04:50:56;;;;;;;10.70;8.32;;;8.50;74.80;;;;;;5096205;28;20564;-41
2022/04/18 04:53:22;;;;;;;13.35;9.15;;;8.50;74.80;;;;;;5106311;28;20834;-42
2022/04/18 04:55:48;;;;;;;12.73;9.32;;;8.50;74.80;;;;;;5097168;28;20070;-41
2022/04/18 04:58:14;;;;;;;9.45;7.60;;;8.50;74.80;;;;;;5107725;28;20761;-41
2022/04/18 05:00:40;;;;;;;13.18;9.38;;;8.50;74.80;;;;;;5095048;28;20019;-40
2022/04/18 05:03:06;;;;;;;13.48;9.05;;;8.50;75.00;;;;;;5108374;28;20032;-41
2022/04/18 05:05:34;;;;;;;12.60;9.05;;;8.50;74.90;;;;;;5094034;28;20024;-41
2022/04/18 05:08:00;;;;;;;10.57;8.25;;;8.50;74.90;;;;;;5107790;28;20420;-41
2022/04/18 05:10:26;;;;;;;9.43;7.43;;;8.50;74.90;;;;;;5096512;28;20101;-41
2022/04/18 05:12:51;;;;;;;10.68;8.38;;;8.50;75.00;;;;;;5105891;28;20031;-41
2022/04/18 05:15:17;;;;;;;9.23;7.45;;;8.50;75.10;;;;;;5103268;28;20031;-41
2022/04/18 05:17:43;;;;;;;11.63;8.50;;;8.50;75.10;;;;;;5108185;28;20410;-41
2022/04/18 05:20:09;;;;;;;12.43;9.07;;;8.50;75.10;;;;;;5102143;28;20488;-41
2022/04/18 05:22:35;;;;;;;11.73;8.85;;;8.50;75.20;;;;;;5093218;28;20475;-42
2022/04/18 05:25:00;;;;;;;10.93;8.70;;;8.50;75.10;;;;;;5091034;28;20024;-41
2022/04/18 05:27:26;;;;;;;11.10;8.30;;;8.50;75.00;;;;;;5095167;28;20099;-42
2022/04/18 05:29:51;;;;;;;9.10;7.25;;;8.60;75.10;;;;;;5088367;28;20050;-42
2022/04/18 05:32:17;;;;;;;11.40;8.43;;;8.60;75.20;;;;;;5098792;28;20033;-42
2022/04/18 05:34:43;;;;;;;12.32;8.88;;;8.60;75.40;;;;;;5087811;28;20020;-37
2022/04/18 05:37:09;;;;;;;10.23;8.23;;;8.60;75.30;;;;;;5098504;28;20032;-41
2022/04/18 05:39:34;;;;;;;11.25;8.90;;;8.60;75.30;;;;;;5086763;28;20065;-42
2022/04/18 05:42:00;;;;;;;12.13;8.25;;;8.70;75.20;;;;;;5098810;28;20099;-40
2022/04/18 05:44:26;;;;;;;10.32;7.70;;;8.70;75.10;;;;;;5087238;28;20077;-42
2022/04/18 05:46:52;;;;;;;10.90;8.27;;;8.80;75.30;;;;;;5100395;28;20027;-43
2022/04/18 05:49:18;;;;;;;13.90;10.25;;;8.80;75.20;;;;;;5086259;28;20086;-41
2022/04/18 05:51:43;;;;;;;11.95;8.98;;;8.80;75.30;;;;;;5097428;28;20027;-41
2022/04/18 05:54:09;;;;;;;13.65;10.00;;;8.80;75.30;;;;;;5088494;28;20020;-42
2022/04/18 05:56:35;;;;;;;13.57;8.48;;;8.90;75.40;;;;;;5093835;28;20055;-42
2022/04/18 05:59:00;;;;;;;10.25;8.18;;;8.90;75.20;;;;;;5091747;28;20553;-42
2022/04/18 06:01:28;;;;;;;8.82;7.25;;;8.90;75.20;;;;;;5090803;28;20023;-40
2022/04/18 06:03:55;;;;;;;11.60;7.93;;;9.00;75.30;;;;;;5093945;28;20408;-41
2022/04/18 06:06:20;;;;;;;8.43;6.18;;;9.00;75.20;;;;;;5089318;28;20028;-41
2022/04/18 06:08:46;;;;;;;8.60;6.72;;;9.00;75.70;;;;;;5095425;28;20028;-41
2022/04/18 06:11:11;;;;;;;7.07;5.65;;;9.00;75.10;;;;;;5088218;28;20028;-41
2022/04/18 06:13:37;;;;;;;8.02;5.60;;;9.00;75.20;;;;;;5097386;28;20058;-40
2022/04/18 06:16:03;;;;;;;7.28;5.88;;;9.10;75.20;;;;;;5088169;28;20539;-41
2022/04/18 06:18:28;;;;;;;6.80;5.60;;;9.10;75.30;;;;;;5095925;28;20042;-41
2022/04/18 06:20:54;;;;;;;9.35;5.97;;;9.10;75.30;;;;;;5086365;28;20054;-41
2022/04/18 06:23:19;;;;;;;8.13;6.03;;;9.20;75.40;;;;;;5097855;28;20040;-43
2022/04/18 06:25:45;;;;;;;8.80;5.82;;;9.20;75.50;;;;;;5086475;28;20024;-42
2022/04/18 06:28:12;;;;;;;9.38;6.38;;;9.20;75.40;;;;;;5099236;28;20546;-42
2022/04/18 06:30:38;;;;;;;9.45;6.30;;;9.30;75.50;;;;;;5070935;28;20012;-42
2022/04/18 06:33:04;;;;;;;8.68;6.32;;;9.30;75.60;;;;;;5094099;28;20025;-42
2022/04/18 06:35:30;;;;;;;8.38;6.35;;;9.40;75.70;;;;;;5086301;28;20111;-41
2022/04/18 06:37:55;;;;;;;10.85;7.18;;;9.40;75.70;;;;;;5091639;28;20122;-42
2022/04/18 06:40:21;;;;;;;7.00;5.85;;;9.50;75.70;;;;;;5089531;28;20020;-40
2022/04/18 06:42:47;;;;;;;7.57;5.18;;;9.50;75.60;;;;;;5089483;28;20463;-41
2022/04/18 06:45:12;;;;;;;8.23;5.50;;;9.60;75.50;;;;;;5092243;28;20044;-42
2022/04/18 06:47:38;;;;;;;7.47;5.20;;;9.60;75.40;;;;;;5087422;28;20035;-39
2022/04/18 06:50:10;;;;;;;6.85;4.97;;;9.60;75.40;;;;;;5095382;28;20082;-41
2022/04/18 06:52:40;;;;;;;;;;;9.70;75.60;;;;;;5085604;28;20024;-42
2022/04/18 06:55:07;;;;;;;6.25;5.20;;;9.80;75.60;;;;;;5096661;28;19954;-42
2022/04/18 06:57:33;;;;;;;7.65;5.60;;;9.80;75.50;;;;;;5084700;28;20550;-42
2022/04/18 06:59:59;;;;;;;7.95;5.38;;;9.80;75.40;;;;;;5096361;28;20111;-42
2022/04/18 07:02:24;;;;;;;7.78;5.15;;;9.90;75.50;;;;;;5084551;28;20115;-42
2022/04/18 07:04:50;;;;;;;5.95;4.72;;;9.90;75.50;;;;;;5096014;28;20895;-41
2022/04/18 07:07:15;;;;;;;6.20;4.65;;;10.00;75.60;;;;;;5084906;28;20020;-41
2022/04/18 07:09:41;;;;;;;7.47;4.80;;;10.00;75.50;;;;;;5096928;28;20382;-40
2022/04/18 07:12:07;;;;;;;5.38;4.57;;;10.10;75.50;;;;;;5084445;28;20021;-41
2022/04/18 07:14:36;;;;;;;5.70;4.80;;;10.10;75.60;;;;;;5095377;28;20532;-41
2022/04/18 07:17:01;;;;;;;6.05;4.85;;;10.10;75.60;;;;;;5104224;28;20031;-43
2022/04/18 07:19:31;;;;;;;6.57;4.97;;;10.20;75.60;;;;;;5094111;28;20100;-42
2022/04/18 07:21:56;;;;;;;7.30;4.72;;;10.30;75.70;;;;;;5102079;28;20069;-41
2022/04/18 07:24:25;;;;;;;7.35;5.22;;;10.30;75.60;;;;;;5095796;28;20398;-42
2022/04/18 07:26:51;;;;;;;6.75;4.88;;;10.40;75.60;;;;;;5084615;28;20032;-40
2022/04/18 07:29:16;;;;;;;6.65;5.00;;;10.40;75.70;;;;;;5089755;28;20754;-41
2022/04/18 07:31:42;;;;;;;6.63;4.32;;;10.40;75.70;;;;;;5097134;28;20040;-41
2022/04/18 07:34:08;;;;;;;5.93;4.20;;;10.50;75.70;;;;;;5090795;28;20027;-43
2022/04/18 07:36:33;;;;;;;6.22;4.53;;;10.50;76.50;;;;;;5099680;28;20016;-41
2022/04/18 07:38:59;;;;;;;5.88;4.20;;;10.60;76.00;;;;;;5090240;28;20027;-42
2022/04/18 07:41:29;;;;;;;5.95;4.47;;;10.70;76.00;;;;;;5099567;28;20028;-39
2022/04/18 07:43:56;;;;;;;7.20;4.43;;;10.80;76.00;;;;;;5089855;28;20032;-42
2022/04/18 07:46:23;;;;;;;6.60;4.32;;;10.90;76.00;;;;;;5100272;28;20093;-43
2022/04/18 07:48:50;;;;;;;5.97;4.63;;;10.90;76.20;;;;;;5088518;28;20032;-42
2022/04/18 07:51:32;;;;;;;5.63;4.90;;;11.00;76.30;;;;;;5101255;28;20019;-43
2022/04/18 07:53:58;;;;;;;6.65;5.30;;;11.10;76.40;;;;;;5088889;28;20107;-41
2022/04/18 07:56:25;;;;;;;5.45;4.57;;;11.20;76.40;;;;;;5101212;28;20071;-41
2022/04/18 07:58:51;;;;;;;6.25;4.20;;;11.30;76.40;;;;;;5089225;28;20028;-42
2022/04/18 08:01:18;;;;;;;5.15;4.55;;;11.40;76.20;;;;;;5100658;28;20031;-43
2022/04/18 08:03:44;;;;;;;5.82;3.67;;;11.40;76.00;;;;;;5068359;28;20052;-42
2022/04/18 08:06:10;;;;;;;5.13;4.00;;;11.50;76.00;;;;;;5093393;28;20058;-43
2022/04/18 08:08:35;;;;;;;4.47;3.60;;;11.60;75.90;;;;;;5091095;28;20028;-41
2022/04/18 08:11:01;;;;;;;4.30;3.53;;;11.60;75.80;;;;;;5101376;28;20073;-42
2022/04/18 08:13:27;;;;;;;4.05;2.88;;;11.70;75.70;;;;;;5103259;28;20031;-41
2022/04/18 08:15:53;;;;;;;4.50;3.78;;;11.80;75.80;;;;;;5099487;28;20028;-45
2022/04/18 08:18:19;;;;;;;4.65;3.70;;;11.90;75.50;;;;;;5104251;28;20172;-43
2022/04/18 08:20:45;;;;;;;4.63;3.35;;;12.00;75.30;;;;;;5105064;28;20019;-42
2022/04/18 08:23:11;;;;;;;4.43;3.38;;;12.10;75.20;;;;;;5088459;28;20079;-41
2022/04/18 08:25:37;;;;;;;3.30;3.00;;;12.10;75.20;;;;;;5106946;28;20024;-40
2022/04/18 08:28:02;;;;;;;2.58;2.20;;;12.20;75.10;;;;;;5096950;28;20077;-42
2022/04/18 08:30:28;;;;;;;2.90;2.42;;;12.20;75.10;;;;;;5107052;28;20566;-41
2022/04/18 08:32:54;;;;;;;3.30;2.80;;;12.30;75.10;;;;;;5096070;28;20016;-41
2022/04/18 08:35:20;;;;;;;3.30;2.67;;;12.30;75.00;;;;;;5108851;28;20024;-42
2022/04/18 08:37:46;;;;;;;3.17;2.55;;;12.40;74.80;;;;;;5094200;28;20387;-41
2022/04/18 08:40:12;;;;;;;2.80;2.17;;;12.50;75.40;;;;;;5109153;28;20031;-43
2022/04/18 08:42:39;;;;;;;3.50;2.53;;;12.60;74.90;;;;;;5094585;28;20020;-43
2022/04/18 08:45:10;;;;;;;2.72;2.20;;;12.60;74.90;;;;;;5107489;28;20134;-43
2022/04/18 08:53:13;;;;;;;2.88;2.10;;;12.80;74.70;;;;;;5098712;28;20084;-42
2022/04/18 08:55:40;;;;;;;5.65;2.28;;;12.90;74.80;;;;;;5087541;28;20499;-43
2022/04/18 08:58:05;;;;;;;2.00;1.80;;;13.00;74.60;;;;;;5098423;28;20035;-43
2022/04/18 09:00:31;;;;;;;3.05;1.77;;;13.10;74.40;;;;;;5088510;28;20027;-42
2022/04/18 09:02:57;;;;;;;3.17;1.83;;;13.20;74.00;;;;;;5097013;28;20069;-42
2022/04/18 09:05:23;;;;;;;2.30;2.10;;;13.30;73.70;;;;;;5090213;28;20073;-44
2022/04/18 09:08:01;;;;;;;1.73;1.63;;;13.40;73.30;;;;;;5094085;28;20107;-42
2022/04/18 09:10:28;;;;;;;2.58;1.95;;;13.50;72.70;;;;;;5090833;28;20152;-42
2022/04/18 09:13:02;;;;;;;2.33;1.85;;;13.60;72.50;;;;;;5092538;28;20019;-43
2022/04/18 09:15:42;;;;;;;2.05;1.85;;;13.70;73.00;;;;;;5095342;28;20139;-42
2022/04/18 09:18:10;;;;;;;2.42;1.90;;;13.70;72.20;;;;;;5100678;28;20464;-40
2022/04/18 09:20:45;;;;;;;2.30;1.70;;;13.80;72.00;;;;;;5100781;28;20012;-43
2022/04/18 09:23:30;;;;;;;1.92;1.50;;;13.90;71.90;;;;;;5102271;28;20077;-43
2022/04/18 09:25:59;;;;;;;2.20;1.85;;;13.90;71.90;;;;;;5101486;28;20455;-42
2022/04/18 09:28:33;;;;;;;2.70;1.92;;;13.90;71.70;;;;;;5101168;28;20028;-42
2022/04/18 09:31:01;;;;;;;1.60;1.50;;;13.90;71.70;;;;;;5102564;28;20030;-41
2022/04/18 09:33:37;;;;;;;1.90;1.70;;;14.00;71.70;;;;;;5101042;28;20036;-42
2022/04/18 09:36:16;;;;;;;1.75;1.65;;;14.00;71.50;;;;;;5101199;28;20070;-42
2022/04/18 09:38:45;;;;;;;1.85;1.70;;;14.10;71.00;;;;;;5102056;28;20074;-40
2022/04/18 09:41:29;;;;;;;2.72;1.40;;;14.10;70.80;;;;;;5099760;28;20750;-41
2022/04/18 09:43:55;;;;;;;1.35;1.25;;;14.20;70.60;;;;;;5101446;28;20773;-42
2022/04/18 09:46:22;;;;;;;1.70;1.60;;;14.30;70.40;;;;;;5099365;28;20337;-40
2022/04/18 09:48:50;;;;;;;2.47;1.77;;;14.40;70.30;;;;;;5103413;28;20047;-40
2022/04/18 09:51:22;;;;;;;1.52;1.42;;;14.40;70.20;;;;;;5097949;28;20016;-42
2022/04/18 09:53:52;;;;;;;1.65;1.50;;;14.50;70.20;;;;;;5104413;28;20031;-41
2022/04/18 09:56:21;;;;;;;1.67;1.40;;;14.50;70.30;;;;;;5096683;28;20039;-43
2022/04/18 09:58:47;;;;;;;2.28;1.73;;;14.50;70.10;;;;;;5077096;28;20074;-43
2022/04/18 10:01:16;;;;;;;1.67;1.58;;;14.60;70.10;;;;;;5097456;28;20063;-46
2022/04/18 10:03:43;;;;;;;2.55;2.08;;;14.70;69.50;;;;;;5087113;28;20039;-42
2022/04/18 10:06:10;;;;;;;2.28;1.92;;;14.70;69.10;;;;;;5097831;28;20089;-43
2022/04/18 10:08:39;;;;;;;2.92;2.10;;;14.80;69.30;;;;;;5085185;28;20032;-43
2022/04/18 10:11:08;;;;;;;2.08;1.85;;;14.90;69.30;;;;;;5098478;28;20475;-40
2022/04/18 10:13:35;;;;;;;2.08;1.77;;;14.90;69.00;;;;;;5086102;28;20122;-42
2022/04/18 10:16:01;;;;;;;1.88;1.50;;;15.00;69.60;;;;;;5099776;28;20027;-42
2022/04/18 10:18:28;;;;;;;2.50;1.90;;;15.00;68.80;;;;;;5106197;28;20112;-41
2022/04/18 10:21:24;;;;;;;2.05;1.77;;;15.10;68.80;;;;;;5096666;28;20039;-43
2022/04/18 10:24:30;;;;;;;2.60;2.40;;;15.20;68.40;;;;;;5065680;28;20531;-44
2022/04/18 10:27:04;;;;;;;2.22;1.85;;;15.20;68.00;;;;;;5095526;28;20028;-41
2022/04/18 10:29:36;;;;;;;3.25;1.70;;;15.30;68.20;;;;;;5086131;28;20036;-43
2022/04/18 10:32:03;;;;;;;2.15;1.95;;;15.30;68.20;;;;;;5094813;28;20054;-41
2022/04/18 10:34:31;;;;;;;2.33;1.88;;;15.30;68.20;;;;;;5085969;28;20032;-41
2022/04/18 10:37:00;;;;;;;2.03;1.80;;;15.40;68.20;;;;;;5091825;28;20463;-39
2022/04/18 10:39:34;;;;;;;1.77;1.67;;;15.40;68.70;;;;;;5106134;28;20059;-40
2022/04/18 10:42:21;;;;;;;1.60;1.50;;;15.50;67.90;;;;;;5093678;28;20069;-41
2022/04/18 10:45:00;;;;;;;1.50;1.40;;;15.50;67.80;;;;;;5105688;28;20529;-42
2022/04/18 10:47:26;;;;;;;2.17;1.70;;;15.60;67.70;;;;;;5093699;28;20044;-41
2022/04/18 10:50:14;;;;;;;1.60;1.50;;;15.70;67.60;;;;;;5105691;28;20098;-42
2022/04/18 10:52:40;;;;;;;1.45;1.30;;;15.80;67.40;;;;;;5093901;28;20024;-40
2022/04/18 10:55:05;;;;;;;1.75;1.65;;;15.80;67.30;;;;;;5085999;28;20078;-42
2022/04/18 10:57:32;;;;;;;1.70;1.60;;;15.90;67.30;;;;;;5097708;28;20819;-42
2022/04/18 10:59:57;;;;;;;2.13;1.80;;;16.00;67.10;;;;;;5085833;28;20348;-42
2022/04/18 11:02:49;;;;;;;1.55;1.45;;;16.00;66.60;;;;;;5098372;28;20051;-43
2022/04/18 11:05:18;;;;;;;1.63;1.40;;;16.10;66.80;;;;;;5079834;28;20036;-43
2022/04/18 11:07:44;;;;;;;2.05;1.85;;;16.20;66.80;;;;;;5098446;28;20112;-42
2022/04/18 11:10:21;;;;;;;1.50;1.40;;;16.30;66.60;;;;;;5085755;28;20028;-42
2022/04/18 11:12:47;;;;;;;1.60;1.50;;;16.30;66.50;;;;;;5097562;28;20050;-41
2022/04/18 11:15:12;;;;;;;1.75;1.40;;;16.30;66.60;;;;;;5086030;28;20124;-42
2022/04/18 11:17:40;;;;;;;2.28;1.60;;;16.30;66.60;;;;;;5093211;28;20645;-41
2022/04/18 11:20:36;;;;;;;1.60;1.45;;;16.30;66.50;;;;;;5104431;28;20070;-43
2022/04/18 11:23:26;;;;;;;1.50;1.40;;;16.40;66.30;;;;;;5071347;28;20040;-41
2022/04/18 11:25:57;;;;;;;1.83;1.60;;;16.40;66.20;;;;;;5065301;28;20029;-46
2022/04/18 11:28:29;;;;;;;2.55;1.70;;;16.40;65.30;;;;;;5095939;28;20044;-43
2022/04/18 11:30:55;;;;;;;1.75;1.48;;;16.50;64.90;;;;;;5067357;28;20546;-42
2022/04/18 11:33:20;;;;;;;1.90;1.80;;;16.50;64.90;;;;;;5097189;28;20029;-42
2022/04/18 11:35:47;;;;;;;1.92;1.73;;;16.60;64.70;;;;;;5085445;28;20129;-44
2022/04/18 11:38:13;;;;;;;2.08;1.75;;;16.60;64.60;;;;;;5095007;28;20117;-43
2022/04/18 11:40:40;;;;;;;1.95;1.77;;;16.60;64.40;;;;;;5087863;28;20032;-42
2022/04/18 11:43:16;;;;;;;1.88;1.70;;;16.60;64.00;;;;;;5092703;28;20019;-43
2022/04/18 11:45:42;;;;;;;1.85;1.70;;;16.70;64.20;;;;;;5089231;28;20538;-40
2022/04/18 11:48:12;;;;;;;2.65;1.83;;;16.70;64.10;;;;;;5091152;28;20070;-41
2022/04/18 11:50:41;;;;;;;2.28;1.85;;;16.80;64.00;;;;;;5091021;28;20028;-43
2022/04/18 11:53:08;;;;;;;2.08;1.77;;;16.90;64.20;;;;;;5089311;28;20016;-41
2022/04/18 11:55:48;;;;;;;3.42;2.30;;;17.10;64.00;;;;;;5092983;28;20036;-40
2022/04/18 11:58:19;;;;;;;2.45;2.25;;;17.20;63.50;;;;;;5088915;28;20497;-42
2022/04/18 12:09:01;;;;;;;2.15;1.75;;;17.50;63.00;;;;;;5092830;28;20039;-43
2022/04/18 12:11:33;;;;;;;2.20;2.00;;;17.50;63.20;;;;;;5088859;28;20016;-40
2022/04/18 12:13:59;;;;;;;2.00;1.80;;;17.50;63.20;;;;;;5090269;28;20784;-42
2022/04/18 12:16:25;;;;;;;3.67;1.83;;;17.60;63.20;;;;;;5100927;28;20078;-40
2022/04/18 12:18:55;;;;;;;1.83;1.70;;;17.70;63.50;;;;;;5105343;28;20036;-42
2022/04/18 12:21:23;;;;;;;3.03;2.05;;;17.80;63.50;;;;;;5099468;28;20099;-41
2022/04/18 12:23:54;;;;;;;1.67;1.58;;;17.90;63.40;;;;;;5106714;28;20131;-40
2022/04/18 12:26:19;;;;;;;1.98;1.83;;;17.80;63.50;;;;;;5098741;28;20024;-42
2022/04/18 12:28:45;;;;;;;1.98;1.73;;;17.90;63.30;;;;;;5106566;28;20020;-42
2022/04/18 12:31:10;;;;;;;2.17;1.90;;;17.90;63.30;;;;;;5096690;28;20024;-42
2022/04/18 12:33:47;;;;;;;2.40;2.20;;;17.90;63.30;;;;;;5106001;28;20023;-41
2022/04/18 12:36:26;;;;;;;3.08;2.00;;;18.00;62.80;;;;;;5094157;28;20019;-44
2022/04/18 12:38:52;;;;;;;2.20;2.00;;;18.10;62.50;;;;;;5085677;28;20491;-42
2022/04/18 12:41:32;;;;;;;2.50;2.30;;;18.10;62.30;;;;;;5095698;28;20052;-42
2022/04/18 12:43:58;;;;;;;1.90;1.70;;;18.20;62.40;;;;;;5105282;28;20102;-41
2022/04/18 12:46:28;;;;;;;2.53;1.95;;;18.20;62.50;;;;;;5096311;28;20503;-42
2022/04/18 12:48:54;;;;;;;2.50;2.10;;;18.20;61.60;;;;;;5109004;28;20032;-40
2022/04/18 12:51:33;;;;;;;2.17;1.95;;;18.20;61.60;;;;;;5094635;28;20045;-41
2022/04/18 12:53:59;;;;;;;2.20;2.00;;;18.30;61.60;;;;;;5107898;28;20062;-42
2022/04/18 12:56:26;;;;;;;3.00;2.30;;;18.30;61.70;;;;;;5093989;28;20083;-42
2022/04/18 12:58:54;;;;;;;2.22;1.90;;;18.30;61.80;;;;;;5109100;28;20032;-41
2022/04/18 13:01:34;;;;;;;1.90;1.70;;;18.40;61.90;;;;;;5094691;28;20038;-41
2022/04/18 13:04:05;;;;;;;2.30;1.83;;;18.40;61.90;;;;;;5107446;28;20027;-39
2022/04/18 13:06:32;;;;;;;2.25;2.05;;;18.40;61.30;;;;;;5095118;28;20028;-42
2022/04/18 13:09:03;;;;;;;2.08;1.88;;;18.40;61.10;;;;;;5107665;28;20114;-42
2022/04/18 13:12:05;;;;;;;2.00;1.80;;;18.40;60.40;;;;;;5095505;28;20024;-41